Latest Weather Observations for Devonport Airport

IDT60801

Issued at 3:31 am EST Saturday 1 August 2015 (issued every 30 minutes, with the page automatically refreshed every 10 minutes)

About weather observations | Map of weather stations | Latest weather observations for TAS | Other Formats
Station Details ID: 091126 Name: DEVONPORT AIRPORT Lat: -41.17 Lon: 146.43 Height: 8.0 m
Data from the previous 72 hours. | See also: Recent months at Devonport Airport
Date/Time
EST
Temp
°C
App
Temp
°C
Dew
Point
Rel
Hum
%
Delta-T
°C
Wind Press
QNH
hPa
Press
MSL
hPa
Rain
since 9 am
mm
Dir
 
Spd
km/h
Gust
km/h
Spd
kts
Gust
kts
01/03:30am 9.9 0.0 8.3 90 0.8 NNW 50 69 27 37 1002.5 1002.5 2.4
01/03:28am 10.0 0.1 8.3 89 0.8 NNW 50 69 27 37 1002.6 1002.6 2.4
01/03:15am 9.9 -0.8 8.0 88 0.9 NNW 54 70 29 38 1002.9 1002.9 2.2
01/03:00am 10.1 0.1 7.7 85 1.2 NNW 50 65 27 35 1003.3 1003.3 2.0
01/02:56am 10.0 0.7 7.4 84 1.2 NNW 46 65 25 35 1003.4 1003.4 2.0
01/02:36am 9.8 -0.3 7.6 86 1.0 NNW 50 67 27 36 1004.1 1004.2 1.6
01/02:33am 9.8 0.4 7.2 84 1.2 NNW 46 67 25 36 1004.2 1004.3 1.6
01/02:30am 9.8 0.1 7.7 87 1.0 NNW 48 65 26 35 1004.4 1004.5 1.6
01/02:00am 9.8 -1.1 7.1 83 1.3 NNW 54 72 29 39 1005.0 1005.1 0.6
01/01:59am 9.8 -1.1 7.1 83 1.3 NNW 54 72 29 39 1005.0 1005.1 0.6
01/01:58am 9.8 -1.5 7.1 83 1.3 NNW 56 72 30 39 1004.8 1004.9 0.6
01/01:47am 10.1 -0.2 6.4 78 1.7 NNW 50 70 27 38 1004.8 1004.9 0.4
01/01:30am 10.8 0.8 6.2 73 2.1 NNW 48 59 26 32 1005.4 1005.5 0.2
01/01:00am 10.9 -0.3 5.7 70 2.4 NNW 54 72 29 39 1006.1 1006.2 0.2
01/12:59am 10.9 -0.3 5.9 71 2.3 NNW 54 72 29 39 1006.3 1006.4 0.2
01/12:51am 10.9 -0.4 5.4 69 2.5 NNW 54 72 29 39 1006.1 1006.2 0.2
01/12:39am 10.6 2.3 6.0 73 2.1 NNW 39 57 21 31 1006.6 1006.7 0.2
01/12:30am 10.0 1.9 6.9 81 1.5 NNW 39 50 21 27 1007.2 1007.3 0.2
01/12:00am 10.5 2.1 5.7 72 2.2 NNW 39 48 21 26 1008.4 1008.5 0.2
 
Date/Time
EST
Temp
°C
App
Temp
°C
Dew
Point
Rel
Hum
%
Delta-T
°C
Wind Press
QNH
hPa
Press
MSL
hPa
Rain
since 9 am
mm
Dir
 
Spd
km/h
Gust
km/h
Spd
kts
Gust
kts
31/11:30pm 10.1 2.3 5.1 71 2.3 NW 35 44 19 24 1009.1 1009.2 0.2
31/11:00pm 10.1 1.5 4.9 70 2.3 NNW 39 50 21 27 1010.0 1010.1 0.2
31/10:30pm 10.0 0.5 4.8 70 2.3 NNW 44 57 24 31 1010.4 1010.5 0.2
31/10:00pm 10.2 1.4 5.4 72 2.2 NNW 41 52 22 28 1010.4 1010.5 0.2
31/09:30pm 10.2 0.9 4.8 69 2.4 NNW 43 54 23 29 1011.0 1011.1 0.2
31/09:00pm 10.1 1.3 5.5 73 2.1 NNW 41 50 22 27 1011.0 1011.1 0.2
31/08:46pm 10.0 2.9 5.6 74 2.0 NNW 32 50 17 27 1011.4 1011.5 0.2
31/08:30pm 9.5 2.8 7.3 86 1.0 NNW 32 41 17 22 1011.9 1012.0 0.2
31/08:00pm 8.7 1.0 7.3 91 0.7 NW 37 48 20 26 1012.3 1012.4 0.2
31/07:45pm 9.6 2.3 7.0 84 1.2 NW 35 57 19 31 1012.2 1012.3 0.2
31/07:30pm 9.5 2.4 6.4 81 1.4 NW 33 41 18 22 1012.5 1012.6 0.2
31/07:00pm 9.5 2.7 6.9 84 1.2 NW 32 44 17 24 1012.4 1012.5 0.2
31/06:30pm 9.2 2.7 6.3 82 1.3 NW 30 39 16 21 1012.8 1012.9 0.2
31/06:00pm 8.7 2.6 6.7 87 0.9 NW 28 39 15 21 1013.2 1013.3 0.2
31/05:30pm 9.3 1.7 5.7 78 1.6 NW 35 43 19 23 1013.0 1013.1 0.2
31/05:00pm 9.1 2.1 6.0 81 1.4 NW 32 41 17 22 1013.0 1013.1 0.2
31/04:45pm 9.0 3.2 6.4 84 1.2 NW 26 33 14 18 1013.0 1013.1 0.2
31/04:34pm 8.4 0.8 5.7 83 1.2 NW 35 54 19 29 1013.0 1013.1 0.2
31/04:32pm 8.2 -0.2 5.8 85 1.1 NW 39 54 21 29 1013.1 1013.2 0.2
31/04:30pm 8.3 -0.4 6.1 86 1.0 NW 41 54 22 29 1013.1 1013.2 0.2
31/04:23pm 9.0 1.8 5.7 80 1.5 NW 33 54 18 29 1013.2 1013.3 0.0
31/04:00pm 9.7 2.6 5.3 74 2.0 NW 32 37 17 20 1013.6 1013.7 0.0
31/03:30pm 10.2 3.2 5.8 74 2.0 NW 32 39 17 21 1013.7 1013.8 0.0
31/03:00pm 9.9 2.1 4.7 70 2.3 NW 35 43 19 23 1014.2 1014.3 0.0
31/02:30pm 10.2 3.8 5.2 71 2.3 NW 28 35 15 19 1014.4 1014.5 0.0
31/02:00pm 10.5 3.7 5.1 69 2.4 NW 30 39 16 21 1014.7 1014.8 0.0
31/01:30pm 10.2 3.0 5.2 71 2.3 NW 32 37 17 20 1015.3 1015.4 0.0
31/01:00pm 10.3 4.6 4.7 68 2.5 NW 24 30 13 16 1015.6 1015.7 0.0
31/12:30pm 10.1 4.3 4.5 68 2.5 NW 24 30 13 16 1016.0 1016.1 0.0
31/12:00pm 9.4 3.6 4.4 71 2.2 NW 24 28 13 15 1016.5 1016.6 0.0
31/11:30am 9.5 4.6 5.1 74 2.0 NW 20 26 11 14 1016.8 1016.9 0.0
31/11:00am 9.1 3.2 3.9 70 2.3 WNW 24 32 13 17 1017.2 1017.3 0.0
31/10:30am 8.6 3.5 4.0 73 2.0 WNW 20 24 11 13 1017.4 1017.5 0.0
31/10:00am 8.4 4.6 4.0 74 1.9 WNW 13 20 7 11 1017.2 1017.3 0.0
31/09:30am 7.6 4.0 2.9 72 2.0 WNW 11 15 6 8 1016.7 1016.8 0.0
31/09:00am 6.2 3.3 2.8 79 1.4 WSW 7 9 4 5 1016.5 1016.6 4.4
31/08:30am 4.8 1.5 2.2 83 1.0 WSW 9 13 5 7 1016.5 1016.6 4.4
31/08:00am 4.1 0.3 1.6 84 1.0 WSW 11 13 6 7 1016.4 1016.5 4.4
31/07:30am 2.4 -2.4 0.1 85 0.8 W 15 17 8 9 1016.1 1016.2 4.4
31/07:00am 3.0 -1.0 0.6 84 0.9 W 11 15 6 8 1015.8 1015.9 4.4
31/06:30am 3.9 -0.7 1.4 84 1.0 W 15 17 8 9 1015.4 1015.5 4.4
31/06:00am 3.7 -0.3 0.7 81 1.1 WSW 11 15 6 8 1015.1 1015.2 4.4
31/05:30am 3.6 -1.5 0.5 80 1.2 W 17 22 9 12 1014.9 1015.0 4.4
31/05:00am 3.8 -0.5 0.7 80 1.2 W 13 13 7 7 1014.6 1014.7 4.4
31/04:30am 4.7 -0.4 0.8 76 1.5 W 17 22 9 12 1014.4 1014.5 4.4
31/04:00am 4.3 -0.4 0.8 78 1.3 W 15 17 8 9 1014.1 1014.2 4.4
31/03:30am 5.1 1.2 1.0 75 1.6 SW 11 13 6 7 1013.9 1014.0 4.4
31/03:00am 5.0 0.7 1.1 76 1.5 SW 13 20 7 11 1013.7 1013.8 4.4
31/02:30am 5.4 -0.2 1.3 75 1.6 W 20 28 11 15 1013.5 1013.6 4.4
31/02:00am 6.5 0.3 2.0 73 1.8 W 24 30 13 16 1012.9 1013.0 4.4
31/01:30am 6.2 0.4 2.3 76 1.6 W 22 28 12 15 1012.4 1012.5 4.4
31/01:00am 5.8 0.5 1.9 76 1.6 WSW 19 24 10 13 1012.1 1012.2 4.4
31/12:30am 6.5 -0.8 2.6 76 1.6 W 30 39 16 21 1011.4 1011.5 4.4
31/12:00am 6.1 0.9 2.6 78 1.4 W 19 24 10 13 1010.9 1011.0 4.4
 
Date/Time
EST
Temp
°C
App
Temp
°C
Dew
Point
Rel
Hum
%
Delta-T
°C
Wind Press
QNH
hPa
Press
MSL
hPa
Rain
since 9 am
mm
Dir
 
Spd
km/h
Gust
km/h
Spd
kts
Gust
kts
30/11:30pm 6.2 2.8 2.1 75 1.7 W 9 13 5 7 1010.2 1010.3 4.4
30/11:00pm 6.7 2.5 1.6 70 2.1 WSW 13 17 7 9 1009.6 1009.7 4.4
30/10:30pm 7.4 1.2 2.3 70 2.1 WSW 24 35 13 19 1008.7 1008.8 4.4
30/10:00pm 7.8 2.0 4.4 79 1.5 W 24 39 13 21 1007.6 1007.7 4.4
30/09:30pm 8.7 1.1 5.6 81 1.4 W 35 44 19 24 1006.7 1006.8 4.4
30/09:00pm 9.2 0.5 5.9 80 1.5 WNW 41 50 22 27 1006.2 1006.3 4.4
30/08:46pm 9.4 2.2 6.1 80 1.5 WNW 33 48 18 26 1005.9 1006.0 4.4
30/08:30pm 9.0 3.5 6.1 82 1.3 W 24 30 13 16 1005.4 1005.5 4.4
30/08:00pm 9.0 3.1 5.9 81 1.4 W 26 37 14 20 1004.9 1005.0 4.4
30/07:49pm 9.1 4.1 6.4 83 1.2 W 22 30 12 16 1004.3 1004.4 4.4
30/07:45pm 9.2 4.2 6.5 83 1.3 W 22 33 12 18 1004.1 1004.2 4.4
30/07:34pm 9.2 1.9 7.3 88 0.9 W 35 61 19 33 1004.7 1004.8 4.4
30/07:30pm 9.5 -0.2 7.4 87 1.0 WNW 48 70 26 38 1005.0 1005.1 4.4
30/07:29pm 9.4 -0.7 7.3 87 1.0 WNW 50 70 27 38 1004.9 1005.0 4.4
30/07:00pm 10.3 -0.6 9.4 94 0.5 NW 57 78 31 42 1004.0 1004.1 3.6
30/06:59pm 10.2 -0.8 9.3 94 0.4 NW 57 78 31 42 1003.8 1003.9 3.6
30/06:30pm 9.9 -0.2 9.0 94 0.4 NW 52 67 28 36 1004.4 1004.5 3.6
30/06:23pm 10.0 -1.1 8.9 93 0.5 NW 57 76 31 41 1004.4 1004.5 3.6
30/06:00pm 10.5 0.1 7.9 84 1.3 NW 52 76 28 41 1004.8 1004.9 3.4
30/05:58pm 10.7 0.7 7.9 83 1.4 NW 50 76 27 41 1004.7 1004.8 3.4
30/05:57pm 10.7 1.1 7.9 83 1.4 NW 48 70 26 38 1004.8 1004.9 3.2
30/05:30pm 11.1 1.0 7.4 78 1.8 NNW 50 63 27 34 1005.1 1005.2 3.0
30/05:19pm 11.0 2.3 7.7 80 1.6 NNW 43 61 23 33 1005.4 1005.5 3.0
30/05:00pm 10.5 1.3 8.1 85 1.2 NNW 46 61 25 33 1005.9 1006.0 2.8
30/04:30pm 10.3 1.4 7.7 84 1.2 NNW 44 59 24 32 1006.5 1006.6 2.4
30/04:15pm 10.3 2.1 8.2 87 1.0 NW 41 57 22 31 1007.0 1007.1 2.0
30/04:00pm 10.0 0.8 7.9 87 1.0 NNW 46 61 25 33 1007.3 1007.4 1.8
30/03:48pm 10.1 0.8 7.7 85 1.2 NNW 46 69 25 37 1007.4 1007.5 1.2
30/03:38pm 10.0 -0.1 7.4 84 1.2 NNW 50 67 27 36 1007.6 1007.7 1.0
30/03:30pm 10.3 -0.2 7.5 83 1.3 NNW 52 67 28 36 1007.7 1007.8 0.8
30/03:00pm 10.2 1.6 8.0 86 1.1 NNW 43 59 23 32 1008.5 1008.6 0.4
30/02:42pm 10.1 1.2 7.5 84 1.2 NNW 44 69 24 37 1008.7 1008.8 0.4
30/02:30pm 10.4 1.4 7.3 81 1.5 NNW 44 56 24 30 1008.8 1008.9 0.2
30/02:00pm 10.1 0.0 7.3 83 1.3 NNW 50 63 27 34 1009.5 1009.6 0.2
30/01:30pm 11.3 1.9 7.0 75 2.0 NNW 46 61 25 33 1010.4 1010.5 0.0
30/01:00pm 11.9 2.0 6.8 71 2.4 NNW 48 59 26 32 1011.1 1011.2 0.0
30/12:41pm 12.0 2.8 6.5 69 2.6 NNW 44 63 24 34 1011.5 1011.6 0.0
30/12:30pm 12.0 2.9 6.9 71 2.4 NNW 44 57 24 31 1011.8 1011.9 0.0
30/12:00pm 12.0 4.1 7.7 75 2.1 NNW 39 52 21 28 1012.7 1012.8 0.0
30/11:30am 11.7 3.3 7.2 74 2.2 NNW 41 54 22 29 1013.6 1013.7 0.0
30/11:00am 11.7 2.6 7.0 73 2.2 NNW 44 56 24 30 1014.4 1014.5 0.0
30/10:30am 11.7 3.6 7.0 73 2.2 NNW 39 48 21 26 1015.0 1015.1 0.0
30/10:00am 11.3 3.3 7.4 77 1.9 NNW 39 50 21 27 1015.8 1015.9 0.0
30/09:30am 11.1 3.4 7.2 77 1.9 NNW 37 48 20 26 1016.2 1016.3 0.0
30/09:00am 11.0 3.7 7.1 77 1.9 NNW 35 44 19 24 1016.5 1016.6 2.2
30/08:30am 10.9 3.5 6.8 76 1.9 NNW 35 46 19 25 1017.0 1017.1 2.2
30/08:00am 10.9 3.6 7.4 79 1.7 NNW 35 46 19 25 1017.4 1017.5 2.2
30/07:30am 10.9 3.5 6.8 76 1.9 NNW 35 44 19 24 1017.6 1017.7 2.2
30/07:00am 10.8 3.4 6.7 76 1.9 NNW 35 44 19 24 1017.7 1017.8 2.2
30/06:30am 10.9 3.4 6.5 74 2.1 NNW 35 46 19 25 1018.0 1018.0 2.2
30/06:00am 10.8 4.0 6.9 77 1.8 NNW 32 41 17 22 1018.4 1018.4 2.2
30/05:30am 10.9 3.9 6.8 76 1.9 NW 33 44 18 24 1018.9 1018.9 2.2
30/05:00am 10.8 3.7 6.6 75 2.0 NNW 33 41 18 22 1019.1 1019.1 2.2
30/04:30am 11.0 4.0 6.7 75 2.0 NNW 33 44 18 24 1019.6 1019.6 2.2
30/04:00am 11.0 3.3 7.1 77 1.9 NNW 37 48 20 26 1019.9 1019.9 2.2
30/03:30am 11.2 3.8 6.9 75 2.0 NW 35 48 19 26 1020.2 1020.2 2.2
30/03:00am 11.2 4.2 6.9 75 2.0 NNW 33 44 18 24 1020.6 1020.6 2.2
30/02:30am 11.3 4.6 7.2 76 2.0 NW 32 43 17 23 1021.2 1021.2 2.2
30/02:00am 11.2 4.3 7.1 76 1.9 NNW 33 41 18 22 1021.4 1021.4 2.2
30/01:30am 11.2 4.4 6.9 75 2.0 NW 32 41 17 22 1022.1 1022.1 2.2
30/01:00am 11.2 5.3 7.7 79 1.7 NW 28 37 15 20 1022.5 1022.5 2.2
30/12:30am 11.2 5.8 7.9 80 1.6 NNW 26 33 14 18 1022.8 1022.8 2.2
30/12:00am 10.9 4.2 7.2 78 1.8 NNW 32 39 17 21 1023.2 1023.2 2.0
 
Date/Time
EST
Temp
°C
App
Temp
°C
Dew
Point
Rel
Hum
%
Delta-T
°C
Wind Press
QNH
hPa
Press
MSL
hPa
Rain
since 9 am
mm
Dir
 
Spd
km/h
Gust
km/h
Spd
kts
Gust
kts
29/11:30pm 10.8 6.5 7.7 81 1.5 NW 20 28 11 15 1023.8 1023.8 2.0
29/11:00pm 11.0 4.3 7.5 79 1.7 NW 32 44 17 24 1023.8 1023.8 2.0
29/10:30pm 10.7 6.6 8.5 86 1.1 WNW 20 24 11 13 1024.3 1024.3 2.0
29/10:00pm 10.6 3.9 7.5 81 1.5 WNW 32 43 17 23 1024.5 1024.5 2.0
29/09:30pm 11.2 5.1 8.4 83 1.4 NW 30 37 16 20 1024.7 1024.7 2.0
29/09:00pm 11.2 5.6 8.6 84 1.3 NW 28 35 15 19 1024.8 1024.8 2.0
29/08:30pm 11.1 5.5 8.7 85 1.2 NW 28 35 15 19 1025.0 1025.0 2.0
29/08:00pm 10.6 7.2 9.2 91 0.7 WNW 17 19 9 10 1025.1 1025.1 2.0
29/07:30pm 10.5 6.6 8.8 89 0.8 WNW 19 24 10 13 1025.2 1025.2 2.0
29/07:00pm 10.4 6.5 8.5 88 0.9 WNW 19 24 10 13 1025.2 1025.2 2.0
29/06:30pm 10.4 5.9 8.5 88 0.9 WNW 22 28 12 15 1025.0 1025.0 2.0
29/06:00pm 10.3 6.4 9.4 94 0.4 WNW 20 26 11 14 1025.0 1025.0 2.0
29/05:56pm 10.2 5.9 9.3 94 0.4 NW 22 30 12 16 1025.0 1025.0 2.0
29/05:42pm 10.1 4.9 9.0 93 0.5 WNW 26 39 14 21 1024.9 1024.9 2.0
29/05:41pm 10.2 5.1 9.3 94 0.4 WNW 26 39 14 21 1025.0 1025.0 2.0
29/05:30pm 10.5 6.3 9.7 95 0.4 NW 22 32 12 17 1025.0 1025.0 2.0
29/05:23pm 10.6 6.4 9.7 94 0.5 NW 22 32 12 17 1025.1 1025.1 1.8
29/05:19pm 10.7 6.8 9.6 93 0.6 WNW 20 26 11 14 1025.2 1025.2 1.6
29/05:00pm 10.4 6.4 9.0 91 0.7 WNW 20 24 11 13 1025.2 1025.2 1.6
29/04:30pm 10.3 6.4 9.4 94 0.4 WNW 20 30 11 16 1025.4 1025.4 1.6
29/04:03pm 10.4 5.5 9.8 96 0.3 NW 26 32 14 17 1025.8 1025.8 1.6
29/04:00pm 10.4 5.5 9.8 96 0.3 NW 26 32 14 17 1025.8 1025.8 1.6
29/03:59pm 10.4 5.0 9.6 95 0.4 NW 28 35 15 19 1025.8 1025.8 1.6
29/03:35pm 10.1 3.9 9.5 96 0.3 WNW 32 39 17 21 1025.9 1025.9 1.4
29/03:32pm 10.3 4.2 9.7 96 0.3 WNW 32 39 17 21 1026.0 1026.0 1.4
29/03:30pm 10.3 4.6 9.7 96 0.3 WNW 30 39 16 21 1026.0 1026.0 1.4
29/03:00pm 10.3 5.0 9.7 96 0.3 WNW 28 35 15 19 1026.3 1026.3 0.2
29/02:52pm 10.4 5.0 9.5 94 0.4 NW 28 35 15 19 1026.4 1026.4 0.0
29/02:45pm 10.8 5.4 9.4 91 0.7 NW 28 35 15 19 1026.4 1026.4 0.0
29/02:30pm 10.8 4.5 9.1 89 0.8 NW 32 39 17 21 1026.4 1026.4 0.0
29/02:00pm 10.7 6.4 9.5 92 0.6 NW 22 30 12 16 1026.6 1026.6 0.0
29/01:59pm 11.0 6.9 10.1 94 0.5 NW 22 26 12 14 1026.6 1026.6 0.0
29/01:42pm 10.3 5.6 9.4 94 0.4 NW 24 33 13 18 1026.9 1026.9 0.0
29/01:37pm 10.7 7.0 9.5 92 0.6 NW 19 22 10 12 1027.0 1027.0 0.0
29/01:30pm 10.9 7.5 9.2 89 0.8 NW 17 20 9 11 1027.1 1027.1 0.0
29/01:00pm 11.3 7.5 9.2 87 1.0 NW 19 22 10 12 1027.7 1027.7 0.0
29/12:30pm 10.6 6.8 8.9 89 0.8 NW 19 22 10 12 1028.3 1028.3 0.0
29/12:00pm 10.6 7.5 9.0 90 0.8 WNW 15 20 8 11 1029.0 1029.0 0.0
29/11:30am 10.3 7.6 8.9 91 0.7 NW 13 17 7 9 1029.5 1029.5 0.0
29/11:00am 10.3 6.8 8.7 90 0.8 NW 17 20 9 11 1029.9 1029.9 0.0
29/10:35am 9.6 7.9 8.2 91 0.7 NNW 7 11 4 6 1030.0 1030.0 0.0
29/10:30am 9.5 7.9 8.1 91 0.7 NNW 6 9 3 5 1030.0 1030.0 0.0
29/10:10am 8.8 6.5 7.3 90 0.7 WNW 9 11 5 6 1030.2 1030.2 0.0
29/10:00am 9.4 7.6 8.0 91 0.7 WNW 7 13 4 7 1030.2 1030.2 0.0
29/09:30am 7.9 7.3 7.3 96 0.3 CALM 0 0 0 0 1030.4 1030.4 0.0
29/09:25am 7.7 6.6 7.1 96 0.3 SW 2 7 1 4 1030.4 1030.4 0.0
29/09:15am 7.4 5.3 6.8 96 0.3 SW 7 7 4 4 1030.6 1030.6 0.0
29/09:00am 7.2 5.1 6.6 96 0.3 WSW 7 9 4 5 1030.7 1030.7 0.0
29/08:52am 7.0 4.8 6.4 96 0.3 W 7 9 4 5 1030.7 1030.7 0.0
29/08:39am 5.8 3.3 4.9 94 0.4 W 7 9 4 5 1030.8 1030.8 0.0
29/08:30am 5.6 3.3 4.6 93 0.4 W 6 7 3 4 1030.8 1030.8 0.0
29/08:00am 5.4 2.8 4.1 91 0.5 W 7 9 4 5 1030.5 1030.5 0.0
29/07:30am 4.8 1.4 3.9 94 0.4 W 11 13 6 7 1030.4 1030.4 0.0
29/07:00am 3.6 0.7 2.6 93 0.4 WSW 7 9 4 5 1030.5 1030.5 0.0
29/06:30am 4.5 2.0 3.8 95 0.3 WSW 6 9 3 5 1030.2 1030.2 0.0
29/06:00am 4.4 1.9 3.5 94 0.4 SSW 6 7 3 4 1029.9 1029.9 0.0
29/05:30am 4.5 2.0 3.5 93 0.4 SW 6 7 3 4 1029.6 1029.6 0.0
29/05:00am 5.5 3.2 4.6 94 0.4 W 6 9 3 5 1029.7 1029.7 0.0
29/04:30am 5.4 2.8 4.1 91 0.6 W 7 9 4 5 1029.5 1029.5 0.0
29/04:00am 6.5 3.8 5.6 94 0.4 WSW 9 11 5 6 1029.5 1029.5 0.0

Other Formats:

Comma delimited format used in spreadsheet applications
http://www.bom.gov.au/fwo/IDT60801/IDT60801.95960.axf

JavaScript Object Notation format (JSON) in row-major order
http://www.bom.gov.au/fwo/IDT60801/IDT60801.95960.json